Portada
METAR-TAF:

METAR-TAF

Aeroports :

Aghajari, Iran

latitud: 30-46N, longitud: 049-40E, altitud: 29 m

Observació

L'informe es va fer fa 48 minuts, a les 04:00 UTC
Vent 10 kt del Sud-Est
Temperatura 34°C
Humitat 41%
Pressió 1001 hPa
Visibilitat: 7000 m
Núvols disperses a una alçada de 4000 ft

METAR: OIAG 220400Z 14010KT 7000 SCT040 34/19 Q1001

Hora: 09:18 (04:48 UTC)


TAF: manca

Observacions i pronòstics meteorològics de més de 4000 aeroports (METAR i TAF).

Les estacions disponibles són els punts grocs i vermells al mapa.

Posi el ratolí al punt desitjat per veure el nom de l'estació.

Feu clic per veure les observacions i els pronòstics meteorològics.

Per canviar el mapa: feu clic els botons verds amb una creu de color negre per apropar; al botó verd amb un guió per allunyar la imatge; o en les fletxes verdes per a mapes adjacents.


METAR-TAF: